Bright Hope — HPTM — position and weather

sailwx.info

Track history (hours):
 
Tides and Currents Weather Stations Pressure Air Temp Water Temp Dewpoint Dewpoint Depression Visibility Wind Speed Wind Dir Waves Ship Positions

Bright Hope

Last reported at 2016-Jan-14 18:26 UTC. Time now 2016-Feb-06 18:38 UTC.
Position N 01°15' E 104°07'.
Warning: this ship's position is 23 days out of date.

Length 170 m; draft 5.8 m.

Type: Cargo ship. MMSI: 371117000.

Date/timePositionNaut miles runAvg speedWind from/ knotsBaromVisibWave heightAir tempDewpointWater temp
2016-Jan-14 18:26N 01°15' E 104°07'1011.0
2016-Jan-14 17:33N 01°14' E 103°57'9 9.1
2016-Jan-14 16:33N 01°12' E 103°49'4 3.5
2016-Jan-14 15:33N 01°15' E 103°48'0 0.0
2016-Jan-14 14:33N 01°15' E 103°48'0 0.2
2016-Jan-14 13:33N 01°15' E 103°48'0 0.0
2016-Jan-14 12:33N 01°15' E 103°48'0 0.0
2016-Jan-14 11:33N 01°15' E 103°48'0 0.0
2016-Jan-14 10:15N 01°15' E 103°48'0 0.0
2016-Jan-14 09:33N 01°15' E 103°48'0 0.0
2016-Jan-14 08:33N 01°15' E 103°48'0 0.0
2016-Jan-14 07:33N 01°15' E 103°48'0 0.1
2016-Jan-14 06:31N 01°15' E 103°48'0 0.1
2016-Jan-14 05:22N 01°15' E 103°48'0 0.2
2016-Jan-14 04:28N 01°15' E 103°48'0 0.0
2016-Jan-14 03:28N 01°15' E 103°48'0 0.1
2016-Jan-14 02:31N 01°15' E 103°48'0 0.0
2016-Jan-14 01:28N 01°15' E 103°48'0 0.5
2016-Jan-14 00:33N 01°15' E 103°48'3 2.5
2016-Jan-13 23:33N 01°16' E 103°46'3 3.4
2016-Jan-13 22:33N 01°18' E 103°43'0 0.0
2016-Jan-12 13:13N 01°18' E 103°43'0 0.0
2016-Jan-12 04:07N 01°18' E 103°43'0 0.0
2016-Jan-10 16:13N 01°18' E 103°43'0 0.0
2016-Jan-10 15:13N 01°18' E 103°43'0 0.0
2016-Jan-10 02:08N 01°18' E 103°43'0 0.0
2016-Jan-10 01:23N 01°18' E 103°43'1 1.5
2016-Jan-10 00:33N 01°17' E 103°44'9 9.3
2016-Jan-09 23:33N 01°14' E 103°53'1 1.3
2016-Jan-09 22:32N 01°15' E 103°53'0 0.0
2016-Jan-09 21:32N 01°15' E 103°53'0 0.0
2016-Jan-09 20:32N 01°15' E 103°53'0 0.0
2016-Jan-09 19:32N 01°15' E 103°53'0 0.0
2016-Jan-09 18:32N 01°15' E 103°53'0 0.0
2016-Jan-09 17:32N 01°15' E 103°53'0 0.0
2016-Jan-09 16:32N 01°15' E 103°53'0 0.0
2016-Jan-09 15:32N 01°15' E 103°53'0 0.0
2016-Jan-09 14:32N 01°15' E 103°53'0 0.0
2016-Jan-09 13:32N 01°15' E 103°53'0 0.0
2016-Jan-09 12:32N 01°15' E 103°53'0 0.0
2016-Jan-09 11:32N 01°15' E 103°53'0 0.0
2016-Jan-09 10:32N 01°15' E 103°53'0 0.0
2016-Jan-09 09:32N 01°15' E 103°53'0 0.1
2016-Jan-09 08:20N 01°15' E 103°54'0 0.1
2016-Jan-09 07:32N 01°15' E 103°54'0 0.0
2016-Jan-09 06:32N 01°15' E 103°54'0 0.0
2016-Jan-09 05:32N 01°15' E 103°54'0 0.0
2016-Jan-09 04:32N 01°15' E 103°54'0 0.1
2016-Jan-09 03:20N 01°15' E 103°54'0 0.1
2016-Jan-09 02:32N 01°15' E 103°53'0 0.0
2016-Jan-09 01:32N 01°15' E 103°53'0 0.0
2016-Jan-09 00:32N 01°15' E 103°53'0 0.0
2016-Jan-08 23:32N 01°15' E 103°53'0 0.0
2016-Jan-08 22:32N 01°15' E 103°53'0 0.0
2016-Jan-08 21:32N 01°15' E 103°53'0 0.0
2016-Jan-08 20:32N 01°15' E 103°53'0 0.0
2016-Jan-08 19:32N 01°15' E 103°53'0 0.0
2016-Jan-08 18:32N 01°15' E 103°53'0 0.0
2016-Jan-08 17:32N 01°15' E 103°53'0 0.0
2016-Jan-08 16:32N 01°15' E 103°53'0 0.0
2016-Jan-08 15:32N 01°15' E 103°53'0 0.0
2016-Jan-08 14:32N 01°15' E 103°53'0 0.0
2016-Jan-08 13:32N 01°15' E 103°53'0 0.0
2016-Jan-08 12:32N 01°15' E 103°53'0 0.0
2016-Jan-08 11:32N 01°15' E 103°53'0 0.0
2016-Jan-08 10:26N 01°15' E 103°53'0 0.0
2016-Jan-08 09:32N 01°15' E 103°53'0 0.0
2016-Jan-08 08:32N 01°15' E 103°53'0 0.1
2016-Jan-08 07:33N 01°15' E 103°54'4 4.4
2016-Jan-08 06:33N 01°15' E 103°58'7 7.4
2016-Jan-08 05:32N 01°16' E 104°05'  
Track history (hours):
 
Tides and Currents Weather Stations Pressure Air Temp Water Temp Dewpoint Dewpoint Depression Visibility Wind Speed Wind Dir Waves Ship Positions

Bright Hope

Last reported at 2016-Jan-14 18:26 UTC. Time now 2016-Feb-06 18:38 UTC.
Position N 01°15' E 104°07'.
Warning: this ship's position is 23 days out of date.

Length 170 m; draft 5.8 m.

Type: Cargo ship. MMSI: 371117000.

Date/timePositionNaut miles runAvg speedWind from/ knotsBaromVisibWave heightAir tempDewpointWater temp
2016-Jan-14 18:26N 01°15' E 104°07'1011.0
2016-Jan-14 17:33N 01°14' E 103°57'9 9.1
2016-Jan-14 16:33N 01°12' E 103°49'4 3.5
2016-Jan-14 15:33N 01°15' E 103°48'0 0.0
2016-Jan-14 14:33N 01°15' E 103°48'0 0.2
2016-Jan-14 13:33N 01°15' E 103°48'0 0.0
2016-Jan-14 12:33N 01°15' E 103°48'0 0.0
2016-Jan-14 11:33N 01°15' E 103°48'0 0.0
2016-Jan-14 10:15N 01°15' E 103°48'0 0.0
2016-Jan-14 09:33N 01°15' E 103°48'0 0.0
2016-Jan-14 08:33N 01°15' E 103°48'0 0.0
2016-Jan-14 07:33N 01°15' E 103°48'0 0.1
2016-Jan-14 06:31N 01°15' E 103°48'0 0.1
2016-Jan-14 05:22N 01°15' E 103°48'0 0.2
2016-Jan-14 04:28N 01°15' E 103°48'0 0.0
2016-Jan-14 03:28N 01°15' E 103°48'0 0.1
2016-Jan-14 02:31N 01°15' E 103°48'0 0.0
2016-Jan-14 01:28N 01°15' E 103°48'0 0.5
2016-Jan-14 00:33N 01°15' E 103°48'3 2.5
2016-Jan-13 23:33N 01°16' E 103°46'3 3.4
2016-Jan-13 22:33N 01°18' E 103°43'0 0.0
2016-Jan-12 13:13N 01°18' E 103°43'0 0.0
2016-Jan-12 04:07N 01°18' E 103°43'0 0.0
2016-Jan-10 16:13N 01°18' E 103°43'0 0.0
2016-Jan-10 15:13N 01°18' E 103°43'0 0.0
2016-Jan-10 02:08N 01°18' E 103°43'0 0.0
2016-Jan-10 01:23N 01°18' E 103°43'1 1.5
2016-Jan-10 00:33N 01°17' E 103°44'9 9.3
2016-Jan-09 23:33N 01°14' E 103°53'1 1.3
2016-Jan-09 22:32N 01°15' E 103°53'0 0.0
2016-Jan-09 21:32N 01°15' E 103°53'0 0.0
2016-Jan-09 20:32N 01°15' E 103°53'0 0.0
2016-Jan-09 19:32N 01°15' E 103°53'0 0.0
2016-Jan-09 18:32N 01°15' E 103°53'0 0.0
2016-Jan-09 17:32N 01°15' E 103°53'0 0.0
2016-Jan-09 16:32N 01°15' E 103°53'0 0.0
2016-Jan-09 15:32N 01°15' E 103°53'0 0.0
2016-Jan-09 14:32N 01°15' E 103°53'0 0.0
2016-Jan-09 13:32N 01°15' E 103°53'0 0.0
2016-Jan-09 12:32N 01°15' E 103°53'0 0.0
2016-Jan-09 11:32N 01°15' E 103°53'0 0.0
2016-Jan-09 10:32N 01°15' E 103°53'0 0.0
2016-Jan-09 09:32N 01°15' E 103°53'0 0.1
2016-Jan-09 08:20N 01°15' E 103°54'0 0.1
2016-Jan-09 07:32N 01°15' E 103°54'0 0.0
2016-Jan-09 06:32N 01°15' E 103°54'0 0.0
2016-Jan-09 05:32N 01°15' E 103°54'0 0.0
2016-Jan-09 04:32N 01°15' E 103°54'0 0.1
2016-Jan-09 03:20N 01°15' E 103°54'0 0.1
2016-Jan-09 02:32N 01°15' E 103°53'0 0.0
2016-Jan-09 01:32N 01°15' E 103°53'0 0.0
2016-Jan-09 00:32N 01°15' E 103°53'0 0.0
2016-Jan-08 23:32N 01°15' E 103°53'0 0.0
2016-Jan-08 22:32N 01°15' E 103°53'0 0.0
2016-Jan-08 21:32N 01°15' E 103°53'0 0.0
2016-Jan-08 20:32N 01°15' E 103°53'0 0.0
2016-Jan-08 19:32N 01°15' E 103°53'0 0.0
2016-Jan-08 18:32N 01°15' E 103°53'0 0.0
2016-Jan-08 17:32N 01°15' E 103°53'0 0.0
2016-Jan-08 16:32N 01°15' E 103°53'0 0.0
2016-Jan-08 15:32N 01°15' E 103°53'0 0.0
2016-Jan-08 14:32N 01°15' E 103°53'0 0.0
2016-Jan-08 13:32N 01°15' E 103°53'0 0.0
2016-Jan-08 12:32N 01°15' E 103°53'0 0.0
2016-Jan-08 11:32N 01°15' E 103°53'0 0.0
2016-Jan-08 10:26N 01°15' E 103°53'0 0.0
2016-Jan-08 09:32N 01°15' E 103°53'0 0.0
2016-Jan-08 08:32N 01°15' E 103°53'0 0.1
2016-Jan-08 07:33N 01°15' E 103°54'4 4.4
2016-Jan-08 06:33N 01°15' E 103°58'7 7.4
2016-Jan-08 05:32N 01°16' E 104°05'  

Dump ship's entire track history